METAR Data
IDs: Format: Raw Decoded Include TAF

Data at: 1152 UTC 23 Sep 2018

KGNV 231053Z 00000KT 8SM CLR 22/21 A3003 RMK AO2 SLP165 T02220206
KGNV 230953Z AUTO 00000KT 10SM CLR 22/21 A3002 RMK AO2 SLP162 T02220206
KGNV 230853Z AUTO 00000KT 10SM CLR 22/20 A3001 RMK AO2 SLP160 T02220200 58010
KGNV 230753Z AUTO 00000KT 10SM CLR 23/21 A3003 RMK AO2 SLP165 T02280206
KGNV 230653Z AUTO 00000KT 10SM CLR 24/22 A3003 RMK AO2 SLP166 T02390217
KGNV 230553Z AUTO 02003KT 10SM CLR 23/21 A3004 RMK AO2 SLP170 T02330211 10272 20233 58009
KGNV 230453Z AUTO 00000KT 10SM CLR 24/21 A3006 RMK AO2 SLP174 T02390211 403330217
KGNV 230353Z AUTO 00000KT 10SM CLR 25/22 A3007 RMK AO2 SLP179 T02500217
KGNV 230253Z AUTO 13003KT 10SM CLR 25/22 A3007 RMK AO2 SLP180 T02500217 51016
KGNV 230153Z 05004KT 10SM CLR 26/22 A3006 RMK AO2 SLP176 T02610222
KGNV 230053Z 07004KT 10SM SCT090 27/22 A3004 RMK AO2 SLP169 T02670217
KGNV 222353Z 07005KT 10SM CLR 27/22 A3002 RMK AO2 SLP164 T02720217 10333 20272 53004
KGNV 222253Z 08005KT 10SM OVC065 28/22 A3002 RMK AO2 SLP161 T02830222
KGNV 222153Z 09007KT 10SM FEW045 OVC100 29/22 A3001 RMK AO2 SLP159 T02890217
KGNV 222053Z 07009KT 10SM BKN060 BKN100 31/22 A3001 RMK AO2 SLP160 T03060217 55015
KGNV 221953Z 08009KT 10SM SCT041 32/21 A3001 RMK AO2 SLP159 T03220206
KGNV 221853Z 07009G15KT 10SM SCT041 32/20 A3003 RMK AO2 SLP166 T03220200
KGNV 221753Z 07008KT 10SM BKN041 BKN055 OVC070 31/22 A3006 RMK AO2 SLP175 T03060222 10328 20239 58016
KGNV 221653Z 07006KT 10SM FEW040 32/21 A3007 RMK AO2 SLP178 T03220211
KGNV 221553Z 07007KT 10SM FEW034 31/21 A3009 RMK AO2 SLP188 T03110211
KGNV 221453Z 11005KT 10SM FEW023 30/22 A3010 RMK AO2 SLP191 T03000222 51003
KGNV 221353Z VRB06KT 10SM CLR 28/23 A3010 RMK AO2 SLP190 T02830228
KGNV 221253Z 04004KT 10SM CLR 27/22 A3010 RMK AO2 SLP189 T02670222
KGNV 221153Z 00000KT 9SM CLR 24/22 A3009 RMK AO2 SLP188 T02390217 10239 20217 53007
KGNV 221053Z 00000KT 5SM BR CLR 23/21 A3008 RMK AO2 SLP184 T02280211
KGNV 220953Z AUTO 00000KT 9SM CLR 22/20 A3008 RMK AO2 SLP184 T02220200
KGNV 220853Z AUTO 00000KT 9SM CLR 23/21 A3007 RMK AO2 SLP180 T02280206 56016
KGNV 220753Z AUTO 00000KT 9SM CLR 23/21 A3008 RMK AO2 SLP183 T02280211
KGNV 220653Z AUTO 00000KT 10SM CLR 23/21 A3010 RMK AO2 SLP188 T02330211
KGNV 220553Z AUTO 28003KT 10SM CLR 23/21 A3012 RMK AO2 SLP195 T02330211 10278 20228 50003
KGNV 220453Z AUTO 00000KT 10SM CLR 24/21 A3012 RMK AO2 SLP196 T02440211 403390233
KGNV 220353Z AUTO 00000KT 10SM CLR 24/21 A3012 RMK AO2 SLP196 T02390211
KGNV 220253Z AUTO 00000KT 10SM CLR 26/21 A3011 RMK AO2 SLP193 T02560211 53009
KGNV 220153Z 08003KT 10SM CLR 26/21 A3010 RMK AO2 SLP188 T02560211
KGNV 220053Z 09006KT 10SM CLR 27/21 A3009 RMK AO2 SLP186 T02670206
KGNV 212353Z 08006KT 10SM CLR 28/20 A3008 RMK AO2 SLP184 T02780200 10339 20278 53011